sensor_id;sensor_type;location;lat;lon;timestamp;temperature;humidity
9925;DHT22;5001;51.674;7.868;2024-03-06T00:00:12;6.70;99.90
9925;DHT22;5001;51.674;7.868;2024-03-06T00:02:40;6.70;99.90
9925;DHT22;5001;51.674;7.868;2024-03-06T00:05:07;6.60;99.90
9925;DHT22;5001;51.674;7.868;2024-03-06T00:07:35;6.60;99.90
9925;DHT22;5001;51.674;7.868;2024-03-06T00:10:03;6.60;99.90
9925;DHT22;5001;51.674;7.868;2024-03-06T00:12:32;6.60;99.90
9925;DHT22;5001;51.674;7.868;2024-03-06T00:14:59;6.60;99.90
9925;DHT22;5001;51.674;7.868;2024-03-06T00:17:26;6.70;99.90
9925;DHT22;5001;51.674;7.868;2024-03-06T00:19:53;6.60;99.90
9925;DHT22;5001;51.674;7.868;2024-03-06T00:22:21;6.70;99.90
9925;DHT22;5001;51.674;7.868;2024-03-06T00:24:50;6.60;99.90
9925;DHT22;5001;51.674;7.868;2024-03-06T00:27:18;6.50;77.10
9925;DHT22;5001;51.674;7.868;2024-03-06T00:29:45;6.60;89.30
9925;DHT22;5001;51.674;7.868;2024-03-06T00:32:12;6.60;81.00
9925;DHT22;5001;51.674;7.868;2024-03-06T00:34:39;6.60;99.90
9925;DHT22;5001;51.674;7.868;2024-03-06T00:37:07;6.70;99.90
9925;DHT22;5001;51.674;7.868;2024-03-06T00:39:33;6.60;99.90
9925;DHT22;5001;51.674;7.868;2024-03-06T00:42:00;6.70;99.90
9925;DHT22;5001;51.674;7.868;2024-03-06T00:44:27;6.70;99.90
9925;DHT22;5001;51.674;7.868;2024-03-06T00:46:54;6.70;99.90
9925;DHT22;5001;51.674;7.868;2024-03-06T00:49:21;6.70;99.90
9925;DHT22;5001;51.674;7.868;2024-03-06T00:51:48;6.70;99.90
9925;DHT22;5001;51.674;7.868;2024-03-06T00:54:16;6.70;99.90
9925;DHT22;5001;51.674;7.868;2024-03-06T00:56:44;6.70;99.90
9925;DHT22;5001;51.674;7.868;2024-03-06T00:59:11;6.70;99.90
9925;DHT22;5001;51.674;7.868;2024-03-06T01:01:38;6.70;99.90
9925;DHT22;5001;51.674;7.868;2024-03-06T01:04:05;6.60;99.90
9925;DHT22;5001;51.674;7.868;2024-03-06T01:06:33;6.60;99.90
9925;DHT22;5001;51.674;7.868;2024-03-06T01:09:00;6.60;99.90
9925;DHT22;5001;51.674;7.868;2024-03-06T01:11:27;6.60;99.90
9925;DHT22;5001;51.674;7.868;2024-03-06T01:13:54;6.60;99.90
9925;DHT22;5001;51.674;7.868;2024-03-06T01:16:21;6.60;99.90
9925;DHT22;5001;51.674;7.868;2024-03-06T01:18:48;6.50;99.90
9925;DHT22;5001;51.674;7.868;2024-03-06T01:21:15;6.40;99.90
9925;DHT22;5001;51.674;7.868;2024-03-06T01:23:42;6.30;99.90
9925;DHT22;5001;51.674;7.868;2024-03-06T01:26:10;6.20;99.90
9925;DHT22;5001;51.674;7.868;2024-03-06T01:28:38;6.20;99.90
9925;DHT22;5001;51.674;7.868;2024-03-06T01:31:05;6.20;99.90
9925;DHT22;5001;51.674;7.868;2024-03-06T01:33:35;6.20;99.90
9925;DHT22;5001;51.674;7.868;2024-03-06T01:36:02;6.20;99.90
9925;DHT22;5001;51.674;7.868;2024-03-06T01:38:29;6.20;99.90
9925;DHT22;5001;51.674;7.868;2024-03-06T01:40:56;6.20;99.90
9925;DHT22;5001;51.674;7.868;2024-03-06T01:43:24;6.10;99.90
9925;DHT22;5001;51.674;7.868;2024-03-06T01:45:52;6.20;99.90
9925;DHT22;5001;51.674;7.868;2024-03-06T01:48:23;6.20;99.90
9925;DHT22;5001;51.674;7.868;2024-03-06T01:50:56;6.30;99.90
9925;DHT22;5001;51.674;7.868;2024-03-06T01:53:29;6.30;99.90
9925;DHT22;5001;51.674;7.868;2024-03-06T01:55:58;6.20;99.90
9925;DHT22;5001;51.674;7.868;2024-03-06T01:58:26;6.20;99.90
9925;DHT22;5001;51.674;7.868;2024-03-06T02:00:53;6.10;99.90
9925;DHT22;5001;51.674;7.868;2024-03-06T02:03:20;6.20;99.90
9925;DHT22;5001;51.674;7.868;2024-03-06T02:05:49;6.20;99.90
9925;DHT22;5001;51.674;7.868;2024-03-06T02:08:17;6.20;99.90
9925;DHT22;5001;51.674;7.868;2024-03-06T02:10:45;6.20;99.90
9925;DHT22;5001;51.674;7.868;2024-03-06T02:13:13;6.30;99.90
9925;DHT22;5001;51.674;7.868;2024-03-06T02:15:41;6.30;99.90
9925;DHT22;5001;51.674;7.868;2024-03-06T02:18:09;6.40;99.90
9925;DHT22;5001;51.674;7.868;2024-03-06T02:20:40;6.40;99.90
9925;DHT22;5001;51.674;7.868;2024-03-06T02:23:08;6.30;99.90
9925;DHT22;5001;51.674;7.868;2024-03-06T02:25:35;6.30;99.90
9925;DHT22;5001;51.674;7.868;2024-03-06T02:28:02;6.20;99.90
9925;DHT22;5001;51.674;7.868;2024-03-06T02:30:30;6.20;99.90
9925;DHT22;5001;51.674;7.868;2024-03-06T02:33:03;6.10;99.90
9925;DHT22;5001;51.674;7.868;2024-03-06T02:35:34;6.20;99.90
9925;DHT22;5001;51.674;7.868;2024-03-06T02:38:04;6.20;99.90
9925;DHT22;5001;51.674;7.868;2024-03-06T02:40:34;6.20;99.90
9925;DHT22;5001;51.674;7.868;2024-03-06T02:43:01;6.20;99.90
9925;DHT22;5001;51.674;7.868;2024-03-06T02:45:29;6.10;99.90
9925;DHT22;5001;51.674;7.868;2024-03-06T02:47:56;6.10;99.90
9925;DHT22;5001;51.674;7.868;2024-03-06T02:50:23;6.10;99.90
9925;DHT22;5001;51.674;7.868;2024-03-06T02:52:50;6.20;99.90
9925;DHT22;5001;51.674;7.868;2024-03-06T02:55:19;6.20;99.90
9925;DHT22;5001;51.674;7.868;2024-03-06T02:57:46;6.20;99.90
9925;DHT22;5001;51.674;7.868;2024-03-06T03:00:16;6.20;99.90
9925;DHT22;5001;51.674;7.868;2024-03-06T03:02:43;6.20;99.90
9925;DHT22;5001;51.674;7.868;2024-03-06T03:05:10;6.20;99.90
9925;DHT22;5001;51.674;7.868;2024-03-06T03:07:37;6.20;99.90
9925;DHT22;5001;51.674;7.868;2024-03-06T03:10:04;6.30;99.90
9925;DHT22;5001;51.674;7.868;2024-03-06T03:12:32;6.30;99.90
9925;DHT22;5001;51.674;7.868;2024-03-06T03:14:59;6.20;99.90
9925;DHT22;5001;51.674;7.868;2024-03-06T03:17:26;6.20;99.90
9925;DHT22;5001;51.674;7.868;2024-03-06T03:19:53;6.20;99.90
9925;DHT22;5001;51.674;7.868;2024-03-06T03:22:20;6.20;99.90
9925;DHT22;5001;51.674;7.868;2024-03-06T03:24:46;6.20;99.90
9925;DHT22;5001;51.674;7.868;2024-03-06T03:27:14;6.20;99.90
9925;DHT22;5001;51.674;7.868;2024-03-06T03:29:41;6.20;99.90
9925;DHT22;5001;51.674;7.868;2024-03-06T03:32:08;6.20;99.90
9925;DHT22;5001;51.674;7.868;2024-03-06T03:34:35;6.10;99.90
9925;DHT22;5001;51.674;7.868;2024-03-06T03:37:02;6.10;99.90
9925;DHT22;5001;51.674;7.868;2024-03-06T03:39:29;6.10;99.90
9925;DHT22;5001;51.674;7.868;2024-03-06T03:41:56;6.20;99.90
9925;DHT22;5001;51.674;7.868;2024-03-06T03:44:23;6.20;99.90
9925;DHT22;5001;51.674;7.868;2024-03-06T03:46:50;6.20;99.90
9925;DHT22;5001;51.674;7.868;2024-03-06T03:49:17;6.20;99.90
9925;DHT22;5001;51.674;7.868;2024-03-06T03:51:45;6.20;99.90
9925;DHT22;5001;51.674;7.868;2024-03-06T03:54:12;6.20;99.90
9925;DHT22;5001;51.674;7.868;2024-03-06T03:56:39;6.20;99.90
9925;DHT22;5001;51.674;7.868;2024-03-06T03:59:06;6.20;99.90
9925;DHT22;5001;51.674;7.868;2024-03-06T04:01:34;6.20;99.90
9925;DHT22;5001;51.674;7.868;2024-03-06T04:04:01;6.20;99.90
9925;DHT22;5001;51.674;7.868;2024-03-06T04:06:28;6.20;99.90
9925;DHT22;5001;51.674;7.868;2024-03-06T04:08:55;6.20;99.90
9925;DHT22;5001;51.674;7.868;2024-03-06T04:11:22;6.20;99.90
9925;DHT22;5001;51.674;7.868;2024-03-06T04:13:49;6.20;99.90
9925;DHT22;5001;51.674;7.868;2024-03-06T04:16:17;6.10;99.90
9925;DHT22;5001;51.674;7.868;2024-03-06T04:18:46;6.10;99.90
9925;DHT22;5001;51.674;7.868;2024-03-06T04:21:13;6.00;99.90
9925;DHT22;5001;51.674;7.868;2024-03-06T04:23:43;6.00;99.90
9925;DHT22;5001;51.674;7.868;2024-03-06T04:26:11;6.00;99.90
9925;DHT22;5001;51.674;7.868;2024-03-06T04:28:38;6.00;99.90
9925;DHT22;5001;51.674;7.868;2024-03-06T04:31:06;6.10;1.00
9925;DHT22;5001;51.674;7.868;2024-03-06T04:33:33;6.10;1.00
9925;DHT22;5001;51.674;7.868;2024-03-06T04:36:03;6.10;1.00
9925;DHT22;5001;51.674;7.868;2024-03-06T04:38:32;6.10;1.00
9925;DHT22;5001;51.674;7.868;2024-03-06T04:40:59;6.10;1.00
9925;DHT22;5001;51.674;7.868;2024-03-06T04:43:26;6.00;1.00
9925;DHT22;5001;51.674;7.868;2024-03-06T04:45:53;5.90;99.90
9925;DHT22;5001;51.674;7.868;2024-03-06T04:48:20;5.90;99.90
9925;DHT22;5001;51.674;7.868;2024-03-06T04:50:47;5.80;99.90
9925;DHT22;5001;51.674;7.868;2024-03-06T04:53:14;5.70;99.90
9925;DHT22;5001;51.674;7.868;2024-03-06T04:55:41;5.70;1.00
9925;DHT22;5001;51.674;7.868;2024-03-06T04:58:08;5.70;1.00
9925;DHT22;5001;51.674;7.868;2024-03-06T05:00:36;5.60;1.00
9925;DHT22;5001;51.674;7.868;2024-03-06T05:03:03;5.60;1.00
9925;DHT22;5001;51.674;7.868;2024-03-06T05:05:48;5.60;1.00
9925;DHT22;5001;51.674;7.868;2024-03-06T05:08:33;5.70;1.00
9925;DHT22;5001;51.674;7.868;2024-03-06T05:11:17;5.70;1.00
9925;DHT22;5001;51.674;7.868;2024-03-06T05:14:02;5.70;1.00
9925;DHT22;5001;51.674;7.868;2024-03-06T05:16:47;5.80;1.00
9925;DHT22;5001;51.674;7.868;2024-03-06T05:19:32;5.80;1.00
9925;DHT22;5001;51.674;7.868;2024-03-06T05:22:17;5.90;1.00
9925;DHT22;5001;51.674;7.868;2024-03-06T05:25:01;5.90;1.00
9925;DHT22;5001;51.674;7.868;2024-03-06T05:27:45;5.80;1.00
9925;DHT22;5001;51.674;7.868;2024-03-06T05:30:30;5.90;1.00
9925;DHT22;5001;51.674;7.868;2024-03-06T05:33:15;5.90;1.00
9925;DHT22;5001;51.674;7.868;2024-03-06T05:35:59;5.90;1.00
9925;DHT22;5001;51.674;7.868;2024-03-06T05:38:45;6.00;1.00
9925;DHT22;5001;51.674;7.868;2024-03-06T05:41:29;6.00;1.00
9925;DHT22;5001;51.674;7.868;2024-03-06T05:44:14;6.00;1.00
9925;DHT22;5001;51.674;7.868;2024-03-06T05:46:59;5.90;1.00
9925;DHT22;5001;51.674;7.868;2024-03-06T05:49:44;5.80;1.00
9925;DHT22;5001;51.674;7.868;2024-03-06T05:52:30;5.90;1.00
9925;DHT22;5001;51.674;7.868;2024-03-06T05:55:14;5.90;1.00
9925;DHT22;5001;51.674;7.868;2024-03-06T05:57:59;5.90;1.00
9925;DHT22;5001;51.674;7.868;2024-03-06T06:00:38;5.90;1.00
9925;DHT22;5001;51.674;7.868;2024-03-06T06:03:07;5.90;1.00
9925;DHT22;5001;51.674;7.868;2024-03-06T06:05:34;5.90;1.00
9925;DHT22;5001;51.674;7.868;2024-03-06T06:08:05;5.90;1.00
9925;DHT22;5001;51.674;7.868;2024-03-06T06:10:33;5.80;1.00
9925;DHT22;5001;51.674;7.868;2024-03-06T06:13:01;5.80;1.00
9925;DHT22;5001;51.674;7.868;2024-03-06T06:15:28;5.70;1.00
9925;DHT22;5001;51.674;7.868;2024-03-06T06:17:55;5.60;1.00
9925;DHT22;5001;51.674;7.868;2024-03-06T06:20:22;5.70;1.00
9925;DHT22;5001;51.674;7.868;2024-03-06T06:22:49;5.70;1.00
9925;DHT22;5001;51.674;7.868;2024-03-06T06:25:16;5.70;1.00
9925;DHT22;5001;51.674;7.868;2024-03-06T06:27:43;5.60;1.00
9925;DHT22;5001;51.674;7.868;2024-03-06T06:30:11;5.70;1.00
9925;DHT22;5001;51.674;7.868;2024-03-06T06:32:41;5.80;1.00
9925;DHT22;5001;51.674;7.868;2024-03-06T06:35:12;5.90;1.00
9925;DHT22;5001;51.674;7.868;2024-03-06T06:37:41;6.00;1.00
9925;DHT22;5001;51.674;7.868;2024-03-06T06:40:09;6.10;1.00
9925;DHT22;5001;51.674;7.868;2024-03-06T06:42:36;6.30;1.00
9925;DHT22;5001;51.674;7.868;2024-03-06T06:45:04;6.30;1.00
9925;DHT22;5001;51.674;7.868;2024-03-06T06:47:34;6.40;1.00
9925;DHT22;5001;51.674;7.868;2024-03-06T06:50:01;6.50;1.00
9925;DHT22;5001;51.674;7.868;2024-03-06T06:52:32;6.60;1.00
9925;DHT22;5001;51.674;7.868;2024-03-06T06:55:01;6.80;1.00
9925;DHT22;5001;51.674;7.868;2024-03-06T06:57:28;6.90;1.00
9925;DHT22;5001;51.674;7.868;2024-03-06T06:59:55;7.20;1.00
9925;DHT22;5001;51.674;7.868;2024-03-06T07:02:22;7.40;99.90
9925;DHT22;5001;51.674;7.868;2024-03-06T07:04:49;7.60;99.90
9925;DHT22;5001;51.674;7.868;2024-03-06T07:07:16;8.30;99.90
9925;DHT22;5001;51.674;7.868;2024-03-06T07:09:44;9.70;1.00
9925;DHT22;5001;51.674;7.868;2024-03-06T07:12:10;11.10;1.00
9925;DHT22;5001;51.674;7.868;2024-03-06T07:14:38;12.40;1.00
9925;DHT22;5001;51.674;7.868;2024-03-06T07:17:05;13.50;1.00
9925;DHT22;5001;51.674;7.868;2024-03-06T07:19:32;14.10;99.90
9925;DHT22;5001;51.674;7.868;2024-03-06T07:21:59;14.30;99.90
9925;DHT22;5001;51.674;7.868;2024-03-06T07:24:29;14.50;99.90
9925;DHT22;5001;51.674;7.868;2024-03-06T07:26:57;15.00;99.90
9925;DHT22;5001;51.674;7.868;2024-03-06T07:29:24;15.50;99.90
9925;DHT22;5001;51.674;7.868;2024-03-06T07:31:51;16.40;99.90
9925;DHT22;5001;51.674;7.868;2024-03-06T07:34:18;15.90;99.90
9925;DHT22;5001;51.674;7.868;2024-03-06T07:36:45;14.90;99.90
9925;DHT22;5001;51.674;7.868;2024-03-06T07:39:16;14.60;99.90
9925;DHT22;5001;51.674;7.868;2024-03-06T07:41:43;14.40;99.90
9925;DHT22;5001;51.674;7.868;2024-03-06T07:44:10;14.20;99.90
9925;DHT22;5001;51.674;7.868;2024-03-06T07:46:37;14.10;99.90
9925;DHT22;5001;51.674;7.868;2024-03-06T07:49:05;14.10;99.90
9925;DHT22;5001;51.674;7.868;2024-03-06T07:51:32;14.30;99.90
9925;DHT22;5001;51.674;7.868;2024-03-06T07:53:59;14.00;99.90
9925;DHT22;5001;51.674;7.868;2024-03-06T07:56:27;12.80;99.90
9925;DHT22;5001;51.674;7.868;2024-03-06T07:58:55;11.80;99.90
9925;DHT22;5001;51.674;7.868;2024-03-06T08:01:24;12.80;99.90
9925;DHT22;5001;51.674;7.868;2024-03-06T08:03:51;13.40;99.90
9925;DHT22;5001;51.674;7.868;2024-03-06T08:06:18;14.60;99.90
9925;DHT22;5001;51.674;7.868;2024-03-06T08:08:45;13.90;99.90
9925;DHT22;5001;51.674;7.868;2024-03-06T08:11:16;13.20;99.90
9925;DHT22;5001;51.674;7.868;2024-03-06T08:13:43;13.10;99.90
9925;DHT22;5001;51.674;7.868;2024-03-06T08:16:10;13.00;99.90
9925;DHT22;5001;51.674;7.868;2024-03-06T08:18:37;13.70;99.90
9925;DHT22;5001;51.674;7.868;2024-03-06T08:21:07;14.30;99.90
9925;DHT22;5001;51.674;7.868;2024-03-06T08:23:34;14.90;99.90
9925;DHT22;5001;51.674;7.868;2024-03-06T08:26:01;14.80;99.90
9925;DHT22;5001;51.674;7.868;2024-03-06T08:28:28;15.20;99.90
9925;DHT22;5001;51.674;7.868;2024-03-06T08:30:55;15.20;99.90
9925;DHT22;5001;51.674;7.868;2024-03-06T08:33:22;15.00;99.90
9925;DHT22;5001;51.674;7.868;2024-03-06T08:35:50;14.50;99.90
9925;DHT22;5001;51.674;7.868;2024-03-06T08:38:17;13.90;99.90
9925;DHT22;5001;51.674;7.868;2024-03-06T08:40:44;13.30;99.90
9925;DHT22;5001;51.674;7.868;2024-03-06T08:43:13;13.00;99.90
9925;DHT22;5001;51.674;7.868;2024-03-06T08:45:43;12.20;99.90
9925;DHT22;5001;51.674;7.868;2024-03-06T08:48:10;12.70;99.90
9925;DHT22;5001;51.674;7.868;2024-03-06T08:50:39;13.30;99.90
9925;DHT22;5001;51.674;7.868;2024-03-06T08:53:07;13.60;99.90
9925;DHT22;5001;51.674;7.868;2024-03-06T08:55:36;13.40;99.90
9925;DHT22;5001;51.674;7.868;2024-03-06T08:58:03;13.00;99.90
9925;DHT22;5001;51.674;7.868;2024-03-06T09:00:30;13.20;99.90
9925;DHT22;5001;51.674;7.868;2024-03-06T09:02:57;12.20;99.90
9925;DHT22;5001;51.674;7.868;2024-03-06T09:05:24;12.20;99.90
9925;DHT22;5001;51.674;7.868;2024-03-06T09:07:51;12.40;99.90
9925;DHT22;5001;51.674;7.868;2024-03-06T09:10:18;12.40;99.90
9925;DHT22;5001;51.674;7.868;2024-03-06T09:12:46;12.70;99.90
9925;DHT22;5001;51.674;7.868;2024-03-06T09:15:14;13.20;99.90
9925;DHT22;5001;51.674;7.868;2024-03-06T09:17:42;13.70;99.90
9925;DHT22;5001;51.674;7.868;2024-03-06T09:20:09;13.80;99.90
9925;DHT22;5001;51.674;7.868;2024-03-06T09:22:39;13.70;99.90
9925;DHT22;5001;51.674;7.868;2024-03-06T09:25:07;13.50;99.90
9925;DHT22;5001;51.674;7.868;2024-03-06T09:27:35;13.20;99.90
9925;DHT22;5001;51.674;7.868;2024-03-06T09:30:02;14.00;99.90
9925;DHT22;5001;51.674;7.868;2024-03-06T09:32:30;15.40;99.90
9925;DHT22;5001;51.674;7.868;2024-03-06T09:34:58;16.60;99.90
9925;DHT22;5001;51.674;7.868;2024-03-06T09:37:25;17.40;99.90
9925;DHT22;5001;51.674;7.868;2024-03-06T09:39:52;16.30;99.90
9925;DHT22;5001;51.674;7.868;2024-03-06T09:42:19;17.00;99.90
9925;DHT22;5001;51.674;7.868;2024-03-06T09:44:47;16.70;99.90
9925;DHT22;5001;51.674;7.868;2024-03-06T09:47:19;15.60;99.90
9925;DHT22;5001;51.674;7.868;2024-03-06T09:49:51;14.40;99.90
9925;DHT22;5001;51.674;7.868;2024-03-06T09:52:21;13.60;99.90
9925;DHT22;5001;51.674;7.868;2024-03-06T09:54:54;13.00;99.90
9925;DHT22;5001;51.674;7.868;2024-03-06T09:57:21;12.70;99.90
9925;DHT22;5001;51.674;7.868;2024-03-06T09:59:48;12.90;99.90
9925;DHT22;5001;51.674;7.868;2024-03-06T10:02:31;15.00;99.90
9925;DHT22;5001;51.674;7.868;2024-03-06T10:05:01;16.20;99.90
9925;DHT22;5001;51.674;7.868;2024-03-06T10:07:28;15.80;99.90
9925;DHT22;5001;51.674;7.868;2024-03-06T10:09:55;15.60;99.90
9925;DHT22;5001;51.674;7.868;2024-03-06T10:12:22;18.00;99.90
9925;DHT22;5001;51.674;7.868;2024-03-06T10:14:51;20.40;99.90
9925;DHT22;5001;51.674;7.868;2024-03-06T10:17:21;22.20;99.90
9925;DHT22;5001;51.674;7.868;2024-03-06T10:19:54;19.90;99.90
9925;DHT22;5001;51.674;7.868;2024-03-06T10:22:22;18.10;99.90
9925;DHT22;5001;51.674;7.868;2024-03-06T10:24:55;18.40;99.90
9925;DHT22;5001;51.674;7.868;2024-03-06T10:27:23;22.10;99.90
9925;DHT22;5001;51.674;7.868;2024-03-06T10:30:03;24.60;99.90
9925;DHT22;5001;51.674;7.868;2024-03-06T10:32:32;22.60;99.90
9925;DHT22;5001;51.674;7.868;2024-03-06T10:35:00;24.00;99.90
9925;DHT22;5001;51.674;7.868;2024-03-06T10:37:28;25.30;99.90
9925;DHT22;5001;51.674;7.868;2024-03-06T10:39:58;25.90;99.90
9925;DHT22;5001;51.674;7.868;2024-03-06T10:42:33;25.20;99.90
9925;DHT22;5001;51.674;7.868;2024-03-06T10:45:03;23.40;99.90
9925;DHT22;5001;51.674;7.868;2024-03-06T10:47:31;20.20;99.90
9925;DHT22;5001;51.674;7.868;2024-03-06T10:50:00;18.20;99.90
9925;DHT22;5001;51.674;7.868;2024-03-06T10:52:32;17.10;99.90
9925;DHT22;5001;51.674;7.868;2024-03-06T10:55:00;20.70;99.90
9925;DHT22;5001;51.674;7.868;2024-03-06T10:57:29;21.70;99.90
9925;DHT22;5001;51.674;7.868;2024-03-06T10:59:57;20.20;99.90
9925;DHT22;5001;51.674;7.868;2024-03-06T11:02:34;19.40;99.90
9925;DHT22;5001;51.674;7.868;2024-03-06T11:05:03;18.40;99.90
9925;DHT22;5001;51.674;7.868;2024-03-06T11:07:32;17.60;99.90
9925;DHT22;5001;51.674;7.868;2024-03-06T11:09:59;17.60;99.90
9925;DHT22;5001;51.674;7.868;2024-03-06T11:12:36;18.40;99.90
9925;DHT22;5001;51.674;7.868;2024-03-06T11:15:15;18.50;99.90
9925;DHT22;5001;51.674;7.868;2024-03-06T11:17:43;18.40;99.90
9925;DHT22;5001;51.674;7.868;2024-03-06T11:20:18;21.10;99.90
9925;DHT22;5001;51.674;7.868;2024-03-06T11:28:24;17.10;99.90
9925;DHT22;5001;51.674;7.868;2024-03-06T11:33:21;15.30;99.90
9925;DHT22;5001;51.674;7.868;2024-03-06T11:36:20;14.80;99.90
9925;DHT22;5001;51.674;7.868;2024-03-06T11:38:58;14.40;99.90
9925;DHT22;5001;51.674;7.868;2024-03-06T11:41:31;14.30;99.90
9925;DHT22;5001;51.674;7.868;2024-03-06T11:44:01;14.40;99.90
9925;DHT22;5001;51.674;7.868;2024-03-06T11:46:48;14.00;99.90
9925;DHT22;5001;51.674;7.868;2024-03-06T11:49:20;13.50;99.90
9925;DHT22;5001;51.674;7.868;2024-03-06T11:52:00;13.30;99.90
9925;DHT22;5001;51.674;7.868;2024-03-06T11:54:30;12.90;99.90
9925;DHT22;5001;51.674;7.868;2024-03-06T11:56:58;13.00;99.90
9925;DHT22;5001;51.674;7.868;2024-03-06T11:59:28;13.00;99.90
9925;DHT22;5001;51.674;7.868;2024-03-06T12:01:57;13.10;99.90
9925;DHT22;5001;51.674;7.868;2024-03-06T12:04:24;13.40;99.90
9925;DHT22;5001;51.674;7.868;2024-03-06T12:06:51;13.50;99.90
9925;DHT22;5001;51.674;7.868;2024-03-06T12:09:18;14.40;99.90
9925;DHT22;5001;51.674;7.868;2024-03-06T12:11:47;16.30;99.90
9925;DHT22;5001;51.674;7.868;2024-03-06T12:14:17;17.30;99.90
9925;DHT22;5001;51.674;7.868;2024-03-06T12:16:54;17.50;99.90
9925;DHT22;5001;51.674;7.868;2024-03-06T12:19:23;17.70;99.90
9925;DHT22;5001;51.674;7.868;2024-03-06T12:21:50;18.10;99.90
9925;DHT22;5001;51.674;7.868;2024-03-06T12:24:17;18.00;99.90
9925;DHT22;5001;51.674;7.868;2024-03-06T12:27:01;17.90;99.90
9925;DHT22;5001;51.674;7.868;2024-03-06T12:29:31;17.20;99.90
9925;DHT22;5001;51.674;7.868;2024-03-06T12:32:00;16.80;99.90
9925;DHT22;5001;51.674;7.868;2024-03-06T12:34:27;16.80;99.90
9925;DHT22;5001;51.674;7.868;2024-03-06T12:36:55;16.20;99.90
9925;DHT22;5001;51.674;7.868;2024-03-06T12:39:23;15.30;99.90
9925;DHT22;5001;51.674;7.868;2024-03-06T12:41:51;15.10;99.90
9925;DHT22;5001;51.674;7.868;2024-03-06T12:44:19;15.00;99.90
9925;DHT22;5001;51.674;7.868;2024-03-06T12:46:47;15.00;99.90
9925;DHT22;5001;51.674;7.868;2024-03-06T12:49:14;14.50;99.90
9925;DHT22;5001;51.674;7.868;2024-03-06T12:51:41;14.30;99.90
9925;DHT22;5001;51.674;7.868;2024-03-06T12:54:09;14.90;99.90
9925;DHT22;5001;51.674;7.868;2024-03-06T12:56:36;14.30;99.90
9925;DHT22;5001;51.674;7.868;2024-03-06T12:59:03;14.00;99.90
9925;DHT22;5001;51.674;7.868;2024-03-06T13:01:30;13.20;99.90
9925;DHT22;5001;51.674;7.868;2024-03-06T13:03:58;13.20;99.90
9925;DHT22;5001;51.674;7.868;2024-03-06T13:06:33;13.40;99.90
9925;DHT22;5001;51.674;7.868;2024-03-06T13:09:00;14.00;99.90
9925;DHT22;5001;51.674;7.868;2024-03-06T13:11:28;14.30;99.90
9925;DHT22;5001;51.674;7.868;2024-03-06T13:13:55;14.50;99.90
9925;DHT22;5001;51.674;7.868;2024-03-06T13:16:22;14.20;99.90
9925;DHT22;5001;51.674;7.868;2024-03-06T13:18:49;14.30;99.90
9925;DHT22;5001;51.674;7.868;2024-03-06T13:21:20;14.50;99.90
9925;DHT22;5001;51.674;7.868;2024-03-06T13:23:47;13.70;99.90
9925;DHT22;5001;51.674;7.868;2024-03-06T13:26:15;13.40;99.90
9925;DHT22;5001;51.674;7.868;2024-03-06T13:28:42;13.30;99.90
9925;DHT22;5001;51.674;7.868;2024-03-06T13:31:10;13.60;99.90
9925;DHT22;5001;51.674;7.868;2024-03-06T13:33:36;13.40;99.90
9925;DHT22;5001;51.674;7.868;2024-03-06T13:36:04;13.20;99.90
9925;DHT22;5001;51.674;7.868;2024-03-06T13:38:31;13.10;99.90
9925;DHT22;5001;51.674;7.868;2024-03-06T13:40:59;13.10;99.90
9925;DHT22;5001;51.674;7.868;2024-03-06T13:43:29;12.80;99.90
9925;DHT22;5001;51.674;7.868;2024-03-06T13:45:56;12.40;99.90
9925;DHT22;5001;51.674;7.868;2024-03-06T13:48:23;12.40;99.90
9925;DHT22;5001;51.674;7.868;2024-03-06T13:50:50;12.60;99.90
9925;DHT22;5001;51.674;7.868;2024-03-06T13:53:18;12.70;99.90
9925;DHT22;5001;51.674;7.868;2024-03-06T13:55:45;12.50;99.90
9925;DHT22;5001;51.674;7.868;2024-03-06T13:58:12;12.30;99.90
9925;DHT22;5001;51.674;7.868;2024-03-06T14:00:39;12.10;99.90
9925;DHT22;5001;51.674;7.868;2024-03-06T14:03:06;12.00;99.90
9925;DHT22;5001;51.674;7.868;2024-03-06T14:05:33;11.90;99.90
9925;DHT22;5001;51.674;7.868;2024-03-06T14:08:00;11.80;99.90
9925;DHT22;5001;51.674;7.868;2024-03-06T14:10:27;11.80;99.90
9925;DHT22;5001;51.674;7.868;2024-03-06T14:12:54;11.80;99.90
9925;DHT22;5001;51.674;7.868;2024-03-06T14:15:22;11.60;99.90
9925;DHT22;5001;51.674;7.868;2024-03-06T14:17:51;11.50;99.90
9925;DHT22;5001;51.674;7.868;2024-03-06T14:20:18;11.30;99.90
9925;DHT22;5001;51.674;7.868;2024-03-06T14:22:45;11.10;99.90
9925;DHT22;5001;51.674;7.868;2024-03-06T14:25:12;11.00;99.90
9925;DHT22;5001;51.674;7.868;2024-03-06T14:27:40;11.00;99.90
9925;DHT22;5001;51.674;7.868;2024-03-06T14:30:07;11.10;99.90
9925;DHT22;5001;51.674;7.868;2024-03-06T14:32:35;11.30;99.90
9925;DHT22;5001;51.674;7.868;2024-03-06T14:35:02;11.50;99.90
9925;DHT22;5001;51.674;7.868;2024-03-06T14:37:30;11.70;99.90
9925;DHT22;5001;51.674;7.868;2024-03-06T14:39:57;11.70;99.90
9925;DHT22;5001;51.674;7.868;2024-03-06T14:42:26;11.70;99.90
9925;DHT22;5001;51.674;7.868;2024-03-06T14:44:53;11.70;99.90
9925;DHT22;5001;51.674;7.868;2024-03-06T14:47:20;11.60;99.90
9925;DHT22;5001;51.674;7.868;2024-03-06T14:49:47;11.60;99.90
9925;DHT22;5001;51.674;7.868;2024-03-06T14:52:14;11.70;99.90
9925;DHT22;5001;51.674;7.868;2024-03-06T14:54:41;11.80;99.90
9925;DHT22;5001;51.674;7.868;2024-03-06T14:57:11;11.70;99.90
9925;DHT22;5001;51.674;7.868;2024-03-06T14:59:38;11.60;99.90
9925;DHT22;5001;51.674;7.868;2024-03-06T15:02:06;11.70;99.90
9925;DHT22;5001;51.674;7.868;2024-03-06T15:04:33;11.80;99.90
9925;DHT22;5001;51.674;7.868;2024-03-06T15:07:00;11.50;99.90
9925;DHT22;5001;51.674;7.868;2024-03-06T15:09:27;11.30;99.90
9925;DHT22;5001;51.674;7.868;2024-03-06T15:11:55;11.40;99.90
9925;DHT22;5001;51.674;7.868;2024-03-06T15:14:23;11.30;99.90
9925;DHT22;5001;51.674;7.868;2024-03-06T15:16:51;11.20;99.90
9925;DHT22;5001;51.674;7.868;2024-03-06T15:19:18;11.30;99.90
9925;DHT22;5001;51.674;7.868;2024-03-06T15:21:45;11.50;99.90
9925;DHT22;5001;51.674;7.868;2024-03-06T15:24:12;11.50;99.90
9925;DHT22;5001;51.674;7.868;2024-03-06T15:26:39;11.50;99.90
9925;DHT22;5001;51.674;7.868;2024-03-06T15:29:06;11.60;99.90
9925;DHT22;5001;51.674;7.868;2024-03-06T15:31:35;11.60;99.90
9925;DHT22;5001;51.674;7.868;2024-03-06T15:34:03;11.40;99.90
9925;DHT22;5001;51.674;7.868;2024-03-06T15:36:30;11.30;99.90
9925;DHT22;5001;51.674;7.868;2024-03-06T15:38:57;11.40;99.90
9925;DHT22;5001;51.674;7.868;2024-03-06T15:41:25;11.30;99.90
9925;DHT22;5001;51.674;7.868;2024-03-06T15:43:52;11.20;99.90
9925;DHT22;5001;51.674;7.868;2024-03-06T15:46:19;11.10;99.90
9925;DHT22;5001;51.674;7.868;2024-03-06T15:48:46;11.00;99.90
9925;DHT22;5001;51.674;7.868;2024-03-06T15:51:13;10.90;99.90
9925;DHT22;5001;51.674;7.868;2024-03-06T15:53:40;10.80;99.90
9925;DHT22;5001;51.674;7.868;2024-03-06T15:56:07;10.60;99.90
9925;DHT22;5001;51.674;7.868;2024-03-06T15:58:37;10.60;99.90
9925;DHT22;5001;51.674;7.868;2024-03-06T16:01:04;10.50;99.90
9925;DHT22;5001;51.674;7.868;2024-03-06T16:03:32;10.50;99.90
9925;DHT22;5001;51.674;7.868;2024-03-06T16:05:59;10.50;99.90
9925;DHT22;5001;51.674;7.868;2024-03-06T16:08:41;10.40;99.90
9925;DHT22;5001;51.674;7.868;2024-03-06T16:11:09;10.40;99.90
9925;DHT22;5001;51.674;7.868;2024-03-06T16:13:37;10.30;99.90
9925;DHT22;5001;51.674;7.868;2024-03-06T16:16:05;10.30;99.90
9925;DHT22;5001;51.674;7.868;2024-03-06T16:18:32;10.10;99.90
9925;DHT22;5001;51.674;7.868;2024-03-06T16:20:59;10.10;99.90
9925;DHT22;5001;51.674;7.868;2024-03-06T16:23:28;10.00;99.90
9925;DHT22;5001;51.674;7.868;2024-03-06T16:25:56;9.90;99.90
9925;DHT22;5001;51.674;7.868;2024-03-06T16:28:23;9.80;99.90
9925;DHT22;5001;51.674;7.868;2024-03-06T16:30:50;9.80;99.90